Time;durP1;ratioP1;P1;durP2;ratioP2;P2;SDS_P1;SDS_P2;PMS_P1;PMS_P2;Temp;Humidity;BMP_temperature;BMP_pressure;BME280_temperature;BME280_humidity;BME280_pressure;Samples;Min_cycle;Max_cycle;Signal;HPM_P1;HPM_P2
2021/11/19 00:02:14;;;;;;;2.20;1.55;;;;;;;25.64;31.69;97968.50;5042004;28;20132;-35
2021/11/19 00:04:40;;;;;;;2.53;1.83;;;;;;;25.64;31.85;97973.75;5047016;28;20050;-37
2021/11/19 00:07:05;;;;;;;2.05;1.60;;;;;;;25.64;31.79;97968.50;5042776;28;20489;-33
2021/11/19 00:09:31;;;;;;;3.90;1.60;;;;;;;25.64;31.76;97973.75;5045215;28;20530;-34
2021/11/19 00:11:56;;;;;;;1.77;1.50;;;;;;;25.64;31.88;97971.13;5047622;28;21222;-36
2021/11/19 00:14:22;;;;;;;2.03;1.30;;;;;;;25.64;31.80;97968.50;5068094;28;20447;-34
2021/11/19 00:16:49;;;;;;;4.15;1.50;;;;;;;25.63;31.81;97970.25;5042005;28;20086;-34
2021/11/19 00:19:15;;;;;;;1.33;1.23;;;;;;;25.63;31.76;97970.25;5048249;28;20035;-34
2021/11/19 00:21:40;;;;;;;3.22;1.58;;;;;;;25.64;31.75;97971.13;5044763;28;20032;-38
2021/11/19 00:24:06;;;;;;;1.85;1.48;;;;;;;25.63;31.66;97972.88;5045393;28;20441;-31
2021/11/19 00:26:32;;;;;;;3.85;2.20;;;;;;;25.63;31.57;97972.88;5040322;28;20031;-35
2021/11/19 00:28:58;;;;;;;3.55;1.73;;;;;;;25.63;31.67;97966.78;5044159;28;20029;-33
2021/11/19 00:31:24;;;;;;;3.65;1.80;;;;;;;25.62;31.61;97960.66;5048910;28;20111;-31
2021/11/19 00:33:50;;;;;;;2.67;1.40;;;;;;;25.62;31.59;97970.31;5044337;28;20086;-34
2021/11/19 00:36:17;;;;;;;2.35;1.38;;;;;;;25.62;31.61;97954.56;5042303;28;20029;-35
2021/11/19 00:38:42;;;;;;;2.45;1.42;;;;;;;25.62;31.50;97959.81;5047521;28;20021;-39
2021/11/19 00:41:09;;;;;;;2.35;1.58;;;;;;;25.61;31.58;97964.22;5040126;28;20167;-37
2021/11/19 00:43:34;;;;;;;1.70;1.60;;;;;;;25.62;31.59;97970.31;5040996;28;20767;-33
2021/11/19 00:46:00;;;;;;;2.13;1.52;;;;;;;25.62;31.66;97959.81;5046273;28;20035;-33
2021/11/19 00:48:26;;;;;;;2.33;1.48;;;;;;;25.62;31.76;97965.06;5048531;28;20041;-34
2021/11/19 00:50:54;;;;;;;2.05;1.30;;;;;;;25.61;31.72;97973.84;5049869;28;20033;-34
2021/11/19 00:53:20;;;;;;;3.03;1.73;;;;;;;25.61;31.85;97960.72;5047257;28;20040;-37
2021/11/19 00:55:45;;;;;;;3.45;1.50;;;;;;;25.60;31.62;97956.38;5049077;28;20040;-31
2021/11/19 00:58:11;;;;;;;1.50;1.38;;;;;;;25.60;31.71;97961.63;5057500;28;20021;-33
2021/11/19 01:00:40;;;;;;;1.38;1.25;;;;;;;25.59;31.61;97952.88;5043141;28;20029;-33
2021/11/19 01:03:06;;;;;;;1.33;1.20;;;;;;;25.59;31.58;97954.66;5042057;28;20056;-34
2021/11/19 01:05:31;;;;;;;1.83;1.40;;;;;;;25.59;31.77;97958.13;5047057;28;20393;-32
2021/11/19 01:07:57;;;;;;;3.00;1.60;;;;;;;25.59;31.68;97959.91;5047621;28;20095;-36
2021/11/19 01:10:26;;;;;;;2.28;1.40;;;;;;;25.58;31.71;97964.31;5042897;28;20036;-34
2021/11/19 01:12:51;;;;;;;2.45;1.60;;;;;;;25.57;31.61;97952.97;5043809;28;20102;-37
2021/11/19 01:15:17;;;;;;;1.90;1.33;;;;;;;25.57;31.57;97952.97;5042129;28;20024;-33
2021/11/19 01:17:46;;;;;;;2.58;1.42;;;;;;;25.57;31.65;97957.34;5048665;28;20025;-34
2021/11/19 01:20:26;;;;;;;2.30;1.60;;;;;;;25.57;31.51;97963.47;5048017;28;20033;-35
2021/11/19 01:22:53;;;;;;;1.77;1.52;;;;;;;25.57;31.57;97963.47;5041881;28;20241;-30
2021/11/19 01:25:19;;;;;;;1.67;1.30;;;;;;;25.56;31.66;97963.50;5042675;28;20024;-34
2021/11/19 01:27:45;;;;;;;2.53;1.70;;;;;;;25.56;31.65;97961.72;5043252;28;20498;-38
2021/11/19 01:30:16;;;;;;;1.60;1.38;;;;;;;25.56;31.67;97961.72;5035110;28;20039;-38
2021/11/19 01:32:41;;;;;;;1.40;1.30;;;;;;;25.55;31.69;97954.72;5039780;28;20040;-33
2021/11/19 01:35:07;;;;;;;3.83;1.65;;;;;;;25.55;31.55;97957.34;5043041;28;20474;-32
2021/11/19 01:37:32;;;;;;;6.95;1.85;;;;;;;25.55;31.59;97956.53;5043288;28;20060;-36
2021/11/19 01:39:58;;;;;;;2.00;1.40;;;;;;;25.53;31.58;97961.81;5044967;28;20036;-33
2021/11/19 01:42:29;;;;;;;2.28;1.60;;;;;;;25.54;31.51;97966.16;5043116;28;20082;-33
2021/11/19 01:45:09;;;;;;;3.70;1.63;;;;;;;25.54;31.67;97968.78;5045119;28;20538;-31
2021/11/19 01:47:35;;;;;;;3.85;1.58;;;;;;;25.55;31.49;97972.28;5042364;28;20055;-38
2021/11/19 01:50:02;;;;;;;1.67;1.42;;;;;;;25.53;31.63;97961.81;5060429;28;20058;-31
2021/11/19 01:52:32;;;;;;;2.03;1.55;;;;;;;25.53;31.67;97967.06;5047405;28;20033;-29
2021/11/19 01:55:11;;;;;;;1.90;1.20;;;;;;;25.53;31.67;97961.81;5045109;28;20029;-37
2021/11/19 01:57:39;;;;;;;2.25;1.50;;;;;;;25.51;31.54;97966.25;5043573;28;20029;-36
2021/11/19 02:00:19;;;;;;;2.33;1.45;;;;;;;25.52;31.68;97967.94;5059950;28;20033;-33
2021/11/19 02:02:46;;;;;;;1.70;1.30;;;;;;;25.51;31.73;97968.88;5064346;28;20823;-32
2021/11/19 02:05:36;;;;;;;2.25;1.50;;;;;;;25.49;31.66;97965.44;5052186;28;20415;-36
2021/11/19 02:08:10;;;;;;;2.22;1.40;;;;;;;25.51;31.50;97966.25;5055379;28;20105;-31
2021/11/19 02:11:12;;;;;;;1.65;1.30;;;;;;;25.48;31.51;97963.75;5063061;28;20131;-39
2021/11/19 02:13:52;;;;;;;1.98;1.50;;;;;;;25.50;31.65;97972.41;5047392;28;20052;-36
2021/11/19 02:16:24;;;;;;;2.50;1.50;;;;;;;25.50;31.69;97969.78;5040510;28;20032;-36
2021/11/19 02:18:58;;;;;;;2.22;1.50;;;;;;;25.51;31.40;97965.41;5047285;28;20468;-35
2021/11/19 02:21:28;;;;;;;2.17;1.40;;;;;;;25.50;31.56;97956.66;5046911;28;20020;-35
2021/11/19 02:24:00;;;;;;;2.58;1.52;;;;;;;25.49;31.59;97960.19;5051283;28;20027;-37
2021/11/19 02:26:40;;;;;;;2.22;1.52;;;;;;;25.50;32.00;97959.28;5052862;28;20070;-33
2021/11/19 02:29:06;;;;;;;1.85;1.40;;;;;;;25.49;31.64;97957.56;5047570;28;20032;-32
2021/11/19 02:31:53;;;;;;;4.53;2.75;;;;;;;25.49;31.50;97954.09;5051622;28;20496;-37
2021/11/19 02:34:19;;;;;;;6.38;1.88;;;;;;;25.44;31.16;97952.47;5050120;28;20029;-35
2021/11/19 02:36:50;;;;;;;1.60;1.30;;;;;;;25.44;31.48;97951.63;5048778;28;20040;-33
2021/11/19 02:39:17;;;;;;;4.45;1.80;;;;;;;25.49;31.54;97967.22;5043461;28;20444;-36
2021/11/19 02:41:46;;;;;;;1.95;1.60;;;;;;;25.47;31.50;97962.00;5061827;28;20032;-33
2021/11/19 02:44:13;;;;;;;2.65;1.48;;;;;;;25.49;31.42;97965.44;5059177;28;20502;-36
2021/11/19 02:46:48;;;;;;;1.95;1.40;;;;;;;25.49;31.62;97964.59;5046889;28;20444;-33
2021/11/19 02:49:13;;;;;;;1.67;1.40;;;;;;;25.49;31.71;97962.81;5058783;28;20047;-32
2021/11/19 02:51:39;;;;;;;1.88;1.13;;;;;;;25.50;31.52;97961.03;5049756;28;20028;-33
2021/11/19 02:54:05;;;;;;;3.55;1.60;;;;;;;25.50;31.47;97959.28;5045363;28;20028;-36
2021/11/19 02:56:31;;;;;;;2.25;1.17;;;;;;;25.50;31.57;97956.66;5043962;28;20028;-37
2021/11/19 02:58:57;;;;;;;2.45;1.55;;;;;;;25.50;31.51;97963.66;5044314;28;20077;-33
2021/11/19 03:02:07;;;;;;;1.45;1.20;;;;;;;25.50;31.69;97961.91;5047519;28;20020;-32
2021/11/19 03:04:36;;;;;;;1.80;1.50;;;;;;;25.51;31.65;97960.16;5039180;28;21049;-33
2021/11/19 03:07:02;;;;;;;2.05;1.45;;;;;;;25.49;31.51;97960.19;5049840;28;20089;-34
2021/11/19 03:09:30;;;;;;;1.48;1.15;;;;;;;25.50;31.58;97955.78;5049488;28;20037;-34
2021/11/19 03:11:55;;;;;;;2.75;1.50;;;;;;;25.49;31.62;97944.47;5049497;28;20021;-33
2021/11/19 03:14:21;;;;;;;1.70;1.23;;;;;;;25.50;31.68;97942.66;5048749;28;20146;-32
2021/11/19 03:16:46;;;;;;;1.23;1.13;;;;;;;25.50;31.61;97940.91;5048384;28;20048;-39
2021/11/19 03:19:12;;;;;;;2.20;1.35;;;;;;;25.49;31.58;97949.69;5045902;28;20033;-36
2021/11/19 03:21:38;;;;;;;2.25;1.23;;;;;;;25.50;31.74;97956.66;5030537;28;20441;-33
2021/11/19 03:24:04;;;;;;;1.63;1.30;;;;;;;25.50;31.80;97955.78;5047075;28;20079;-34
2021/11/19 03:26:30;;;;;;;1.48;1.10;;;;;;;25.50;31.78;97959.28;5045365;28;20037;-34
2021/11/19 03:28:55;;;;;;;1.55;1.10;;;;;;;25.50;31.76;97956.66;5063526;28;20058;-37
2021/11/19 03:31:21;;;;;;;1.13;1.00;;;;;;;25.49;31.70;97957.56;5044443;28;20087;-33
2021/11/19 03:33:47;;;;;;;1.10;0.93;;;;;;;25.50;31.54;97961.91;5048684;28;20029;-35
2021/11/19 03:36:13;;;;;;;2.33;1.20;;;;;;;25.50;31.73;97964.53;5064342;28;20127;-34
2021/11/19 03:38:40;;;;;;;1.38;1.02;;;;;;;25.50;31.87;97961.91;5048951;28;20563;-34
2021/11/19 03:41:06;;;;;;;3.17;1.05;;;;;;;25.50;31.91;97967.16;5051310;28;20465;-33
2021/11/19 03:43:44;;;;;;;1.70;1.02;;;;;;;25.51;31.71;97966.25;5046183;28;20025;-36
2021/11/19 03:46:21;;;;;;;1.40;1.00;;;;;;;25.51;31.69;97962.78;5047636;28;20070;-37
2021/11/19 03:48:47;;;;;;;2.15;1.38;;;;;;;25.51;31.77;97961.00;5049217;28;20024;-32
2021/11/19 03:51:34;;;;;;;1.40;0.95;;;;;;;25.51;31.76;97963.63;5050727;28;20550;-34
2021/11/19 03:53:59;;;;;;;0.90;0.80;;;;;;;25.52;31.84;97954.00;5060235;28;20041;-36
2021/11/19 03:56:25;;;;;;;2.35;0.90;;;;;;;25.51;31.74;97958.38;5050563;28;20056;-31
2021/11/19 03:58:50;;;;;;;3.65;0.90;;;;;;;25.51;31.95;97960.16;5049630;28;20029;-36
2021/11/19 04:01:28;;;;;;;1.23;1.13;;;;;;;25.49;31.83;97960.19;5049596;28;20038;-34
2021/11/19 04:03:54;;;;;;;1.52;1.00;;;;;;;25.49;31.95;97965.44;5063763;28;20124;-35
2021/11/19 04:06:20;;;;;;;1.23;1.13;;;;;;;25.50;31.89;97959.28;5046171;28;20033;-33
2021/11/19 04:08:46;;;;;;;3.25;1.10;;;;;;;25.51;31.94;97971.50;5049830;28;20032;-37
2021/11/19 04:11:11;;;;;;;1.58;0.88;;;;;;;25.48;31.85;97971.63;5045264;28;20533;-31
2021/11/19 04:13:37;;;;;;;1.10;1.00;;;;;;;25.50;32.02;97966.28;5046468;28;20029;-34
2021/11/19 04:16:20;;;;;;;1.17;0.90;;;;;;;25.50;31.95;97972.41;5044369;28;20021;-34
2021/11/19 04:18:46;;;;;;;1.15;0.90;;;;;;;25.51;31.84;97968.03;5049703;28;20060;-36
2021/11/19 04:21:11;;;;;;;0.75;0.70;;;;;;;25.51;31.99;97968.03;5046808;28;20136;-32
2021/11/19 04:23:37;;;;;;;1.40;1.05;;;;;;;25.49;32.04;97970.69;5045754;28;20113;-37
2021/11/19 04:26:03;;;;;;;1.35;1.10;;;;;;;25.49;32.01;97968.06;5044131;28;20044;-36
2021/11/19 04:28:28;;;;;;;1.23;0.80;;;;;;;25.49;31.89;97973.31;5048420;28;20025;-35
2021/11/19 04:30:54;;;;;;;1.30;1.00;;;;;;;25.50;31.93;97977.66;5043206;28;20049;-35
2021/11/19 04:33:20;;;;;;;1.30;1.17;;;;;;;25.50;32.03;97977.66;5055454;28;20047;-35
2021/11/19 04:35:46;;;;;;;1.48;0.90;;;;;;;25.50;32.05;97982.03;5045099;28;20028;-36
2021/11/19 04:38:12;;;;;;;1.92;1.00;;;;;;;25.50;32.09;97985.53;5042676;28;20036;-33
2021/11/19 04:40:38;;;;;;;0.95;0.90;;;;;;;25.50;32.09;97989.91;5046711;28;20021;-36
2021/11/19 04:43:06;;;;;;;1.67;1.00;;;;;;;25.48;32.14;97987.38;5044620;28;20142;-33
2021/11/19 04:45:32;;;;;;;1.10;1.00;;;;;;;25.49;32.00;97991.69;5044019;28;20509;-37
2021/11/19 04:47:57;;;;;;;1.42;0.88;;;;;;;25.49;32.14;97991.69;5057722;28;20029;-33
2021/11/19 04:50:26;;;;;;;1.10;0.93;;;;;;;25.49;32.11;97981.19;5042774;28;20145;-37
2021/11/19 04:52:51;;;;;;;1.50;0.70;;;;;;;25.50;32.09;97982.91;5042309;28;20413;-36
2021/11/19 04:55:17;;;;;;;0.95;0.88;;;;;;;25.50;32.05;97977.66;5046882;28;20036;-36
2021/11/19 04:57:42;;;;;;;1.17;1.00;;;;;;;25.49;32.24;97978.56;5040733;28;20024;-36
2021/11/19 05:00:11;;;;;;;0.93;0.80;;;;;;;25.50;32.17;97976.78;5040940;28;20028;-35
2021/11/19 05:02:37;;;;;;;0.93;0.80;;;;;;;25.49;32.14;97977.69;5042323;28;20032;-34
2021/11/19 05:05:02;;;;;;;1.13;1.02;;;;;;;25.49;32.22;97975.06;5046558;28;20687;-34
2021/11/19 05:07:28;;;;;;;1.52;1.10;;;;;;;25.48;32.04;97974.25;5043748;28;20032;-37
2021/11/19 05:09:53;;;;;;;1.10;1.00;;;;;;;25.47;32.05;97972.50;5048842;28;20028;-35
2021/11/19 05:12:23;;;;;;;1.42;1.08;;;;;;;25.47;32.09;97967.25;5045440;28;20021;-32
2021/11/19 05:14:49;;;;;;;1.10;1.00;;;;;;;25.47;32.22;97956.75;5045543;28;20039;-33
2021/11/19 05:17:15;;;;;;;1.02;0.93;;;;;;;25.47;32.27;97964.63;5044476;28;20028;-33
2021/11/19 05:19:40;;;;;;;1.60;1.02;;;;;;;25.48;32.02;97957.63;5047941;28;20051;-36
2021/11/19 05:22:06;;;;;;;1.45;0.93;;;;;;;25.47;32.11;97956.75;5045196;28;20029;-33
2021/11/19 05:24:31;;;;;;;1.02;0.93;;;;;;;25.48;32.17;97961.13;5045925;28;20021;-35
2021/11/19 05:26:57;;;;;;;1.92;1.00;;;;;;;25.48;32.33;97963.75;5046921;28;20559;-35
2021/11/19 05:29:22;;;;;;;1.50;0.93;;;;;;;25.48;32.29;97962.88;5044389;28;20916;-33
2021/11/19 05:31:48;;;;;;;1.73;0.90;;;;;;;25.48;32.26;97963.75;5060918;28;20029;-36
2021/11/19 05:34:14;;;;;;;1.25;1.02;;;;;;;25.48;32.37;97963.75;5045708;28;20125;-36
2021/11/19 05:36:39;;;;;;;0.80;0.80;;;;;;;25.48;32.29;97963.75;5050687;28;20055;-35
2021/11/19 05:39:05;;;;;;;0.80;0.80;;;;;;;25.48;32.27;97968.13;5049336;28;20067;-33
2021/11/19 05:41:30;;;;;;;1.38;0.98;;;;;;;25.48;32.17;97973.38;5048945;28;20041;-32
2021/11/19 05:43:56;;;;;;;1.02;0.80;;;;;;;25.47;32.28;97962.00;5048915;28;20145;-35
2021/11/19 05:46:23;;;;;;;1.20;1.10;;;;;;;25.48;32.39;97965.50;5050785;28;20566;-33
2021/11/19 05:48:50;;;;;;;1.60;1.10;;;;;;;25.47;32.23;97969.88;5066074;28;20511;-35
2021/11/19 05:51:15;;;;;;;1.30;0.93;;;;;;;25.47;32.26;97971.66;5049890;28;20025;-36
2021/11/19 05:53:42;;;;;;;1.55;1.10;;;;;;;25.47;32.26;97966.41;5043773;28;20453;-34
2021/11/19 05:56:08;;;;;;;1.70;1.20;;;;;;;25.47;32.37;97956.75;5047897;28;20111;-32
2021/11/19 05:58:33;;;;;;;1.48;0.90;;;;;;;25.46;32.38;97949.78;5043812;28;20029;-40
2021/11/19 06:01:01;;;;;;;1.10;1.00;;;;;;;25.47;32.30;97940.16;5048248;28;20028;-34
2021/11/19 06:03:27;;;;;;;0.95;0.80;;;;;;;25.46;32.29;97949.78;5050429;28;20029;-33
2021/11/19 06:05:52;;;;;;;0.98;0.88;;;;;;;25.47;32.30;97955.91;5065489;28;20043;-30
2021/11/19 06:08:19;;;;;;;1.00;0.90;;;;;;;25.47;32.31;97951.50;5041953;28;20032;-33
2021/11/19 06:10:50;;;;;;;0.90;0.88;;;;;;;25.47;32.18;97951.50;5046374;28;20024;-36
2021/11/19 06:13:23;;;;;;;2.63;0.82;;;;;;;25.47;32.42;97959.38;5052193;28;20179;-35
2021/11/19 06:15:51;;;;;;;1.48;0.98;;;;;;;25.47;32.40;97954.13;5063707;28;20040;-34
2021/11/19 06:18:38;;;;;;;1.45;0.95;;;;;;;25.47;32.30;97961.16;5046674;28;20413;-33
2021/11/19 06:21:05;;;;;;;1.20;1.00;;;;;;;25.48;32.33;97963.75;5048177;28;20293;-32
2021/11/19 06:23:39;;;;;;;1.92;1.15;;;;;;;25.48;32.37;97971.63;5044353;28;20424;-35
2021/11/19 06:26:07;;;;;;;2.50;0.95;;;;;;;25.48;32.38;97963.75;5050669;28;20082;-31
2021/11/19 06:28:41;;;;;;;1.23;0.90;;;;;;;25.48;32.39;97974.25;5046341;28;20024;-31
2021/11/19 06:31:07;;;;;;;1.23;0.80;;;;;;;25.47;32.29;97980.38;5048741;28;20024;-33
2021/11/19 06:33:33;;;;;;;1.02;1.00;;;;;;;25.49;32.34;97989.06;5045716;28;20105;-37
2021/11/19 06:35:58;;;;;;;1.27;0.95;;;;;;;25.50;32.42;97995.16;5045145;28;20037;-34
2021/11/19 06:38:23;;;;;;;1.42;1.08;;;;;;;25.50;32.25;97995.16;5030897;28;20032;-35
2021/11/19 06:40:49;;;;;;;0.80;0.80;;;;;;;25.50;32.41;97992.53;5046952;28;20048;-31
2021/11/19 06:43:15;;;;;;;1.33;0.90;;;;;;;25.50;32.35;97998.66;5032627;28;20032;-36
2021/11/19 06:45:40;;;;;;;1.50;0.80;;;;;;;25.51;32.40;97999.53;5045281;28;20040;-32
2021/11/19 06:48:06;;;;;;;1.92;0.70;;;;;;;25.51;32.37;97995.13;5049366;28;20025;-31
2021/11/19 06:50:33;;;;;;;1.33;0.98;;;;;;;25.51;32.32;97994.28;5028607;28;20028;-34
2021/11/19 06:52:59;;;;;;;1.80;1.65;;;;;;;25.51;32.01;97997.75;5043287;28;20451;-33
2021/11/19 06:55:24;;;;;;;3.38;1.50;;;;;;;25.51;31.84;98005.59;5045890;28;20114;-36
2021/11/19 06:57:50;;;;;;;1.20;1.10;;;;;;;25.51;31.92;98000.38;5045078;28;20063;-38
2021/11/19 07:00:22;;;;;;;1.65;1.20;;;;;;;25.52;32.15;98001.22;5059598;28;20120;-35
2021/11/19 07:02:47;;;;;;;2.88;0.93;;;;;;;25.52;32.09;98003.84;5042024;28;20036;-37
2021/11/19 07:05:13;;;;;;;1.20;1.10;;;;;;;25.52;32.18;98009.94;5047089;28;20036;-36
2021/11/19 07:07:38;;;;;;;1.77;1.10;;;;;;;25.52;32.18;98012.56;5046745;28;20771;-32
2021/11/19 07:10:04;;;;;;;3.13;1.00;;;;;;;25.52;32.34;98017.81;5046679;28;20062;-37
2021/11/19 07:12:29;;;;;;;1.35;1.20;;;;;;;25.53;32.27;98019.56;5043264;28;20040;-37
2021/11/19 07:14:55;;;;;;;1.23;1.13;;;;;;;25.54;32.13;98015.16;5044364;28;20020;-34
2021/11/19 07:17:20;;;;;;;3.00;1.05;;;;;;;25.54;32.07;98012.53;5046406;28;20491;-33
2021/11/19 07:19:46;;;;;;;2.08;1.15;;;;;;;25.55;32.09;98011.63;5042635;28;20735;-32
2021/11/19 07:22:11;;;;;;;1.55;1.02;;;;;;;25.54;32.23;98018.66;5044189;28;20059;-35
2021/11/19 07:24:37;;;;;;;1.88;1.13;;;;;;;25.54;31.96;98021.28;5050602;28;20029;-35
2021/11/19 07:27:03;;;;;;;2.90;1.20;;;;;;;25.56;32.05;98034.38;5043755;28;20028;-35
2021/11/19 07:29:29;;;;;;;3.00;1.40;;;;;;;25.54;32.00;98031.78;5040273;28;20051;-35
2021/11/19 07:31:54;;;;;;;5.25;1.75;;;;;;;25.55;32.11;98037.88;5043183;28;20136;-35
2021/11/19 07:34:20;;;;;;;2.75;2.10;;;;;;;25.55;31.55;98037.88;5020147;28;1082994;-35
2021/11/19 07:36:45;;;;;;;3.45;1.65;;;;;;;25.55;31.58;98036.09;5057588;28;20037;-34
2021/11/19 07:39:11;;;;;;;7.13;1.83;;;;;;;25.55;31.77;98041.34;5046398;28;20044;-35
2021/11/19 07:41:36;;;;;;;6.82;1.95;;;;;;;25.57;31.94;98057.09;5045439;28;20036;-36
2021/11/19 07:44:03;;;;;;;6.45;2.00;;;;;;;25.57;32.05;98046.59;5033063;28;21039;-37
2021/11/19 07:46:28;;;;;;;4.90;2.22;;;;;;;25.57;31.96;98057.97;5056250;28;20051;-37
2021/11/19 07:48:54;;;;;;;8.23;3.05;;;;;;;25.59;31.86;98059.66;5038759;28;20555;-35
2021/11/19 07:51:25;;;;;;;8.52;3.88;;;;;;;25.57;29.91;98047.47;5043791;28;20243;-34
2021/11/19 07:53:51;;;;;;;9.93;4.13;;;;;;;25.50;29.20;98045.91;5044972;28;20039;-34
2021/11/19 07:56:18;;;;;;;10.82;3.90;;;;;;;25.49;28.57;98048.56;5057962;28;21261;-34
2021/11/19 07:58:43;;;;;;;7.60;3.88;;;;;;;25.46;28.06;98046.91;5044717;28;20039;-34
2021/11/19 08:01:09;;;;;;;8.70;3.95;;;;;;;25.40;27.99;98047.09;5044255;28;20447;-35
2021/11/19 08:03:34;;;;;;;8.00;3.83;;;;;;;25.36;27.91;98048.94;5041946;28;20499;-30
2021/11/19 08:06:01;;;;;;;9.57;4.13;;;;;;;25.30;27.77;98047.41;5042356;28;20032;-32
2021/11/19 08:08:28;;;;;;;9.23;4.82;;;;;;;25.26;27.43;98053.66;5045378;28;20093;-33
2021/11/19 08:10:53;;;;;;;13.80;4.47;;;;;;;25.22;27.15;98051.16;5041452;28;20046;-32
2021/11/19 08:13:19;;;;;;;11.35;4.43;;;;;;;25.16;27.49;98057.44;5045031;28;20052;-32
2021/11/19 08:15:44;;;;;;;11.52;3.50;;;;;;;25.14;27.28;98056.63;5042601;28;21099;-36
2021/11/19 08:18:27;;;;;;;7.45;3.40;;;;;;;25.09;27.14;98058.53;5042044;28;20048;-31
2021/11/19 08:20:54;;;;;;;6.70;3.65;;;;;;;25.04;27.37;98056.91;5053893;28;20056;-36
2021/11/19 08:23:33;;;;;;;6.45;3.67;;;;;;;25.03;27.02;98054.34;5055915;28;20063;-37
2021/11/19 08:26:20;;;;;;;7.43;2.83;;;;;;;25.03;28.07;98057.81;5056402;28;20020;-35
2021/11/19 08:28:47;;;;;;;8.32;2.70;;;;;;;25.07;28.98;98047.22;5041607;28;20864;-36
2021/11/19 08:31:15;;;;;;;5.13;2.47;;;;;;;25.09;29.52;98050.69;5042340;28;20032;-33
2021/11/19 08:33:40;;;;;;;5.07;2.60;;;;;;;25.14;29.94;98059.25;5044456;28;20066;-37
2021/11/19 08:36:06;;;;;;;4.57;2.70;;;;;;;25.17;30.17;98056.56;5040028;28;20043;-34
2021/11/19 08:38:31;;;;;;;7.35;2.70;;;;;;;25.21;30.26;98060.81;5034336;28;20047;-35
2021/11/19 08:40:57;;;;;;;7.05;2.72;;;;;;;25.26;30.48;98055.41;5041750;28;20055;-29
2021/11/19 08:43:28;;;;;;;8.40;2.75;;;;;;;25.27;30.45;98050.09;5057245;28;20036;-39
2021/11/19 08:45:54;;;;;;;6.63;2.33;;;;;;;25.34;30.79;98055.16;5055652;28;20104;-33
2021/11/19 08:48:21;;;;;;;3.63;2.25;;;;;;;25.36;30.94;98048.09;5043173;28;20097;-33
2021/11/19 08:50:46;;;;;;;5.53;2.47;;;;;;;25.40;30.92;98049.72;5058235;28;20028;-35
2021/11/19 08:53:13;;;;;;;6.75;2.60;;;;;;;25.42;31.01;98053.16;5042495;28;20076;-33
2021/11/19 08:55:45;;;;;;;7.25;2.60;;;;;;;25.44;31.05;98056.59;5041088;28;20028;-37
2021/11/19 08:58:15;;;;;;;5.60;2.65;;;;;;;25.47;31.12;98061.72;5038188;28;20025;-32
2021/11/19 09:00:41;;;;;;;4.67;2.33;;;;;;;25.49;31.07;98064.31;5043252;28;20032;-38
2021/11/19 09:03:07;;;;;;;5.50;2.42;;;;;;;25.52;31.20;98074.72;5057813;28;20290;-34
2021/11/19 09:05:34;;;;;;;6.53;2.60;;;;;;;25.54;31.30;98065.88;5041267;28;20728;-31
2021/11/19 09:08:00;;;;;;;4.78;2.10;;;;;;;25.56;31.25;98069.34;5042300;28;20016;-36
2021/11/19 09:10:25;;;;;;;3.97;2.30;;;;;;;25.57;31.39;98068.47;5045849;28;20081;-33
2021/11/19 09:12:51;;;;;;;6.13;2.72;;;;;;;25.59;31.49;98059.66;5044037;28;20689;-37
2021/11/19 09:15:18;;;;;;;10.57;2.30;;;;;;;25.59;31.46;98067.53;5056659;28;20624;-33
2021/11/19 09:17:50;;;;;;;9.85;2.60;;;;;;;25.59;31.44;98063.13;5044989;28;20112;-34
2021/11/19 09:20:33;;;;;;;5.80;2.58;;;;;;;25.63;31.56;98061.28;5042179;28;20028;-34
2021/11/19 09:23:09;;;;;;;4.95;2.58;;;;;;;25.64;31.52;98057.75;5045480;28;20535;-35
2021/11/19 09:25:35;;;;;;;7.90;4.53;;;;;;;25.62;28.56;98064.81;5043937;28;20150;-33
2021/11/19 09:28:01;;;;;;;16.05;6.97;;;;;;;25.43;24.11;98066.22;5054869;28;20120;-34
2021/11/19 09:30:31;;;;;;;25.85;7.40;;;;;;;25.14;23.15;98072.38;5055557;28;20459;-31
2021/11/19 09:32:57;;;;;;;40.65;8.55;;;;;;;24.83;23.24;98068.00;5055919;28;20536;-36
2021/11/19 09:35:26;;;;;;;28.40;6.80;;;;;;;24.57;24.30;98078.31;5041402;28;20060;-36
2021/11/19 09:37:52;;;;;;;31.88;6.60;;;;;;;24.40;25.26;98077.03;5042742;28;20710;-32
2021/11/19 09:40:25;;;;;;;23.98;8.45;;;;;;;24.33;25.92;98072.00;5055465;28;20020;-35
2021/11/19 09:43:02;;;;;;;22.65;5.18;;;;;;;24.30;26.89;98072.94;5041539;28;20111;-36
2021/11/19 09:45:27;;;;;;;18.33;5.68;;;;;;;24.31;27.21;98071.16;5056986;28;20629;-34
2021/11/19 09:48:17;;;;;;;15.15;5.10;;;;;;;24.35;27.65;98068.44;5043937;28;20025;-34
2021/11/19 09:51:24;;;;;;;15.77;4.60;;;;;;;24.39;27.97;98072.69;5056785;28;20028;-32
2021/11/19 09:54:19;;;;;;;11.88;4.43;;;;;;;24.46;28.51;98062.03;5043698;28;20049;-33
2021/11/19 09:57:05;;;;;;;14.07;4.38;;;;;;;24.52;28.58;98051.41;5043702;28;20699;-35
2021/11/19 09:59:45;;;;;;;12.90;4.18;;;;;;;24.59;28.64;98047.69;5057351;28;20044;-30
2021/11/19 10:02:33;;;;;;;9.88;4.88;;;;;;;24.66;28.70;98049.25;5057872;28;20043;-37
2021/11/19 10:05:25;;;;;;;20.30;4.90;;;;;;;24.72;29.04;98042.97;5041228;28;20120;-32
2021/11/19 10:08:29;;;;;;;19.70;4.20;;;;;;;24.77;29.10;98034.94;5062958;28;20695;-34
2021/11/19 10:10:59;;;;;;;10.88;3.85;;;;;;;24.85;29.15;98053.09;5044591;28;20068;-34
2021/11/19 10:13:30;;;;;;;9.18;4.05;;;;;;;24.89;29.10;98044.25;5060686;28;20037;-31
2021/11/19 10:16:01;;;;;;;9.77;3.45;;;;;;;24.94;29.06;98033.63;5048259;28;20029;-34
2021/11/19 10:18:34;;;;;;;10.73;3.70;;;;;;;24.98;29.26;98023.00;5043603;28;20080;-32
2021/11/19 10:21:07;;;;;;;10.90;4.32;;;;;;;25.01;29.18;98028.16;5043790;28;20032;-33
2021/11/19 10:23:41;;;;;;;13.82;4.20;;;;;;;25.05;29.04;98010.53;5044778;28;20036;-35
2021/11/19 10:26:06;;;;;;;12.60;3.97;;;;;;;25.07;29.04;98021.88;5041996;28;20024;-34
2021/11/19 10:28:38;;;;;;;12.15;3.47;;;;;;;25.08;29.18;98018.34;5047726;28;20025;-33
2021/11/19 10:31:05;;;;;;;13.55;3.80;;;;;;;25.10;29.44;98031.41;5045028;28;20020;-34
2021/11/19 10:33:38;;;;;;;11.73;3.47;;;;;;;25.12;29.47;98029.56;5042649;28;20116;-34
2021/11/19 10:36:17;;;;;;;9.45;3.30;;;;;;;25.13;29.43;98026.06;5035305;28;20369;-31
2021/11/19 10:38:58;;;;;;;9.13;3.40;;;;;;;25.14;29.49;98023.38;5051008;28;20041;-31
2021/11/19 10:41:43;;;;;;;9.93;3.40;;;;;;;25.17;29.70;98032.94;5048906;28;20021;-30
2021/11/19 10:44:15;;;;;;;7.93;3.20;;;;;;;25.17;29.71;98028.53;5049765;28;20021;-29
2021/11/19 10:47:05;;;;;;;19.75;7.20;;;;;;;25.18;29.02;98042.53;5063980;28;20032;-33
2021/11/19 10:49:56;;;;;;;16.60;7.05;;;;;;;25.15;28.38;98032.13;5050712;28;20382;-30
2021/11/19 10:52:59;;;;;;;9.73;3.67;;;;;;;25.13;28.84;98031.31;5046882;28;20024;-33
2021/11/19 10:56:06;;;;;;;5.53;3.13;;;;;;;25.13;29.17;98020.81;5047902;28;20031;-38
2021/11/19 10:58:45;;;;;;;11.13;3.30;;;;;;;25.14;29.51;98017.28;5047768;28;20178;-37
2021/11/19 11:01:17;;;;;;;7.95;3.30;;;;;;;25.14;29.75;98012.03;5050241;28;20036;-30
2021/11/19 11:04:10;;;;;;;14.05;3.50;;;;;;;25.15;29.82;98014.63;5050101;28;20102;-34
2021/11/19 11:06:46;;;;;;;10.27;3.53;;;;;;;25.18;29.94;98008.41;5052082;28;20032;-34
2021/11/19 11:09:30;;;;;;;11.43;3.90;;;;;;;25.18;29.90;98003.19;5066809;28;20103;-35
2021/11/19 11:12:11;;;;;;;9.23;3.47;;;;;;;25.22;29.98;97986.44;5053611;28;20024;-32
2021/11/19 11:14:38;;;;;;;12.32;3.33;;;;;;;25.22;30.08;97983.81;5045247;28;20594;-36
2021/11/19 11:17:26;;;;;;;9.77;3.50;;;;;;;25.24;30.02;97979.34;5044056;28;20109;-32
2021/11/19 11:19:55;;;;;;;9.32;3.30;;;;;;;25.25;30.22;97973.19;5041019;28;20040;-35
2021/11/19 11:22:25;;;;;;;7.60;3.60;;;;;;;25.25;31.04;97983.69;5035063;28;20092;-32
2021/11/19 11:25:10;;;;;;;7.20;3.47;;;;;;;25.29;31.43;97979.22;5060509;28;20273;-32
2021/11/19 11:27:58;;;;;;;12.40;3.22;;;;;;;25.33;32.16;97978.22;5045078;28;20039;-32
2021/11/19 11:30:29;;;;;;;10.48;3.33;;;;;;;25.39;32.49;97982.38;5045671;28;20090;-29
2021/11/19 11:33:03;;;;;;;13.85;3.95;;;;;;;25.48;32.48;97987.38;5048052;28;20035;-30
2021/11/19 11:35:37;;;;;;;13.52;4.38;;;;;;;25.62;32.02;97978.19;5050279;28;20020;-32
2021/11/19 11:38:22;;;;;;;18.92;7.85;;;;;;;25.74;27.35;97975.13;5044837;28;20025;-36
2021/11/19 11:41:09;;;;;;;14.80;5.43;;;;;;;25.86;28.34;97979.13;5038989;28;20024;-29
2021/11/19 11:43:54;;;;;;;12.52;4.40;;;;;;;26.01;29.17;97982.97;5039180;28;20052;-32
2021/11/19 11:46:55;;;;;;;10.05;3.95;;;;;;;26.17;29.49;97972.78;5041722;28;20508;-31